createdAt,value
2022-08-05T05:32:47.098Z,22.50
2022-08-05T05:37:59.744Z,22.80
2022-08-05T05:42:58.181Z,23.80
2022-08-05T05:50:43.824Z,26.30
2022-08-05T05:53:21.244Z,27.60
2022-08-05T05:55:51.744Z,28.70
2022-08-05T06:01:12.333Z,30.20
2022-08-05T06:04:00.935Z,29.80
2022-08-05T06:06:31.229Z,29.80
2022-08-05T06:11:28.944Z,28.20
2022-08-05T06:13:56.759Z,27.40
2022-08-05T06:19:01.875Z,26.90
2022-08-05T06:24:11.204Z,26.00
2022-08-05T06:26:52.166Z,26.00
2022-08-05T06:29:42.861Z,25.40
2022-08-05T06:34:53.510Z,25.40
2022-08-05T06:40:12.571Z,26.10
2022-08-05T06:48:36.080Z,26.10
2022-08-05T06:53:11.324Z,29.60
2022-08-05T06:55:41.880Z,31.30
2022-08-05T07:00:59.863Z,32.10
2022-08-05T07:06:06.223Z,32.60
2022-08-05T07:08:47.171Z,32.90
2022-08-05T07:11:16.425Z,33.60
2022-08-05T07:14:20.116Z,33.40
2022-08-05T07:17:58.330Z,32.40
2022-08-05T07:20:32.521Z,32.80
2022-08-05T07:22:37.823Z,32.40
2022-08-05T07:25:21.956Z,32.90
2022-08-05T07:27:56.617Z,32.30
2022-08-05T07:33:05.486Z,31.40
2022-08-05T07:36:04.970Z,32.50
2022-08-05T07:38:33.174Z,33.50
2022-08-05T07:42:07.277Z,34.30
2022-08-05T07:46:25.508Z,34.70
2022-08-05T07:49:02.069Z,35.50
2022-08-05T07:51:37.018Z,36.50
2022-08-05T07:54:06.356Z,36.00
2022-08-05T07:57:02.932Z,36.70
2022-08-05T07:59:38.928Z,35.50
2022-08-05T08:02:16.406Z,36.30
2022-08-05T08:04:46.675Z,36.10
2022-08-05T08:07:14.905Z,37.10
2022-08-05T08:09:43.154Z,36.50
2022-08-05T08:12:35.521Z,35.80
2022-08-05T08:15:02.445Z,36.30
2022-08-05T08:17:31.668Z,34.20
2022-08-05T08:20:22.335Z,33.90
2022-08-05T08:22:56.415Z,34.00
2022-08-05T08:25:26.710Z,33.20
2022-08-05T08:28:18.876Z,33.80
2022-08-05T08:30:59.423Z,34.60
2022-08-05T08:33:28.241Z,36.00
2022-08-05T08:38:43.171Z,35.80
2022-08-05T08:41:26.361Z,35.80
2022-08-05T08:45:18.732Z,35.50
2022-08-05T08:47:02.476Z,35.90
2022-08-05T08:50:07.820Z,35.70
2022-08-05T08:52:25.640Z,36.50
2022-08-05T08:54:54.204Z,36.60
2022-08-05T08:57:25.640Z,36.40
2022-08-05T09:00:10.162Z,35.90
2022-08-05T09:05:16.600Z,36.10
2022-08-05T09:07:57.282Z,37.00
2022-08-05T09:10:27.926Z,35.60
2022-08-05T09:12:57.715Z,37.80
2022-08-05T09:15:32.528Z,36.10
2022-08-05T09:18:08.819Z,35.90
2022-08-05T09:20:37.694Z,36.10
2022-08-05T09:26:00.818Z,35.40
2022-08-05T09:28:33.191Z,36.50
2022-08-05T09:31:22.298Z,36.00
2022-08-05T09:34:02.854Z,34.60
2022-08-05T09:36:56.327Z,36.20
2022-08-05T09:39:39.262Z,36.10
2022-08-05T09:42:23.289Z,36.50
2022-08-05T09:44:56.995Z,37.00
2022-08-05T09:47:36.400Z,36.80
2022-08-05T09:50:18.149Z,36.90
2022-08-05T09:53:01.700Z,36.40
2022-08-05T09:55:56.714Z,37.30
2022-08-05T09:58:23.456Z,35.50
2022-08-05T10:00:56.865Z,38.20
2022-08-05T10:03:24.817Z,37.40
2022-08-05T10:06:15.682Z,37.60
2022-08-05T10:08:43.332Z,36.10
2022-08-05T10:11:21.627Z,37.50
2022-08-05T10:13:54.671Z,36.90
2022-08-05T10:16:37.846Z,36.70
2022-08-05T10:19:11.823Z,35.90
2022-08-05T10:21:40.165Z,36.10
2022-08-05T10:24:13.214Z,35.40
2022-08-05T10:26:51.910Z,36.50
2022-08-05T10:29:24.102Z,36.50
2022-08-05T10:32:54.430Z,36.70
2022-08-05T10:35:00.932Z,37.50
2022-08-05T10:37:40.123Z,36.80
2022-08-05T10:40:22.484Z,36.70
2022-08-05T10:43:04.527Z,36.80
2022-08-05T10:45:40.131Z,37.00
2022-08-05T10:48:35.262Z,37.70
2022-08-05T10:51:21.799Z,37.40
2022-08-05T10:53:54.613Z,36.80
2022-08-05T10:56:27.655Z,37.50
2022-08-05T11:01:54.098Z,37.00
2022-08-05T11:04:26.181Z,37.30
2022-08-05T11:10:03.710Z,37.90
2022-08-05T11:16:00.044Z,36.70
2022-08-05T11:18:37.629Z,36.70
2022-08-05T11:21:48.738Z,36.90
2022-08-05T11:27:37.021Z,36.00
2022-08-05T11:30:19.422Z,36.80
2022-08-05T11:32:47.938Z,37.00
2022-08-05T11:36:08.114Z,36.20
2022-08-05T11:38:45.866Z,36.20
2022-08-05T11:41:54.541Z,36.30
2022-08-05T11:44:12.710Z,36.40
2022-08-05T11:49:49.813Z,36.30
2022-08-05T11:52:33.593Z,36.40
2022-08-05T11:58:08.110Z,35.40
2022-08-05T12:00:32.404Z,35.50
2022-08-05T12:03:23.725Z,35.10
2022-08-05T12:06:06.159Z,34.20
2022-08-05T12:08:50.036Z,34.20
2022-08-05T12:14:06.556Z,33.60
2022-08-05T12:16:38.457Z,33.20
2022-08-05T12:19:08.442Z,33.70
2022-08-05T12:21:46.755Z,34.20
2022-08-05T12:24:20.927Z,34.20
2022-08-05T12:26:53.631Z,35.00
2022-08-05T12:29:23.502Z,34.30
2022-08-05T12:31:54.368Z,33.90
2022-08-05T12:34:31.343Z,33.80
2022-08-05T12:37:01.472Z,34.00
2022-08-05T12:39:34.466Z,33.70
2022-08-05T12:42:14.311Z,34.10
2022-08-05T12:44:44.694Z,33.60
2022-08-05T12:47:25.544Z,33.80
2022-08-05T12:52:42.458Z,33.60
2022-08-05T12:55:23.514Z,34.30
2022-08-05T12:58:49.513Z,33.80
2022-08-05T13:02:02.361Z,33.40
2022-08-05T13:03:32.428Z,32.40
2022-08-05T13:06:01.807Z,32.70
2022-08-05T13:08:32.350Z,33.00
2022-08-05T13:11:02.248Z,33.30
2022-08-05T13:14:05.201Z,33.40
2022-08-05T13:16:20.289Z,33.40
2022-08-05T13:18:58.997Z,33.00
2022-08-05T13:21:28.255Z,32.80
2022-08-05T13:24:08.868Z,32.50
2022-08-05T13:26:36.650Z,32.80
2022-08-05T13:29:05.431Z,33.40
2022-08-05T13:32:03.865Z,32.20
2022-08-05T13:34:26.037Z,33.40
2022-08-05T13:36:54.634Z,33.10
2022-08-05T13:40:13.027Z,32.00
2022-08-05T13:42:14.713Z,31.80
2022-08-05T13:44:45.936Z,32.50
2022-08-05T13:47:35.837Z,32.50
2022-08-05T13:50:04.529Z,33.10
2022-08-05T13:52:35.182Z,32.60
2022-08-05T13:55:07.300Z,31.80
2022-08-05T13:57:51.173Z,32.30
2022-08-05T14:00:27.019Z,31.90
2022-08-05T14:02:57.008Z,30.90
2022-08-05T14:11:03.334Z,31.20
2022-08-05T14:32:02.275Z,30.50
2022-08-05T14:37:04.382Z,30.30
2022-08-05T14:39:49.258Z,30.20
2022-08-05T14:42:20.975Z,30.40
2022-08-05T14:47:58.484Z,30.40
2022-08-05T14:52:57.669Z,30.40
2022-08-05T14:55:38.407Z,29.60
2022-08-05T14:58:11.334Z,29.60
2022-08-05T15:00:59.520Z,29.50
2022-08-05T15:03:33.030Z,29.20
2022-08-05T15:06:13.004Z,28.80
2022-08-05T15:11:52.066Z,29.70
2022-08-05T15:14:33.158Z,29.00
2022-08-05T15:17:01.592Z,29.40
2022-08-05T15:19:31.882Z,29.40
2022-08-05T15:24:29.328Z,29.00
2022-08-05T15:32:03.065Z,28.20
2022-08-05T15:37:06.512Z,28.50
2022-08-05T15:47:46.380Z,28.20
2022-08-05T15:50:15.938Z,28.10
2022-08-05T15:52:52.710Z,28.40
2022-08-05T15:55:24.488Z,28.00
